createdAt,value
2018-10-17T00:01:50.973Z,71.10
2018-10-17T00:04:20.325Z,71.30
2018-10-17T00:06:49.624Z,71.10
2018-10-17T00:09:18.790Z,71.50
2018-10-17T00:11:47.941Z,71.80
2018-10-17T00:14:17.141Z,71.50
2018-10-17T00:16:46.413Z,70.80
2018-10-17T00:19:15.651Z,70.60
2018-10-17T00:21:44.813Z,71.30
2018-10-17T00:24:13.988Z,70.20
2018-10-17T00:26:43.264Z,70.90
2018-10-17T00:29:12.473Z,70.60
2018-10-17T00:31:41.604Z,70.20
2018-10-17T00:34:10.851Z,70.70
2018-10-17T00:36:40.006Z,71.20
2018-10-17T00:39:10.832Z,70.70
2018-10-17T00:41:40.273Z,70.40
2018-10-17T00:44:09.451Z,70.90
2018-10-17T00:46:38.625Z,70.90
2018-10-17T00:49:07.800Z,70.20
2018-10-17T00:51:36.981Z,70.10
2018-10-17T00:54:06.943Z,70.10
2018-10-17T00:56:36.102Z,70.00
2018-10-17T00:59:16.376Z,69.80
2018-10-17T01:01:45.464Z,69.70
2018-10-17T01:04:14.636Z,69.60
2018-10-17T01:06:43.826Z,69.90
2018-10-17T01:09:14.818Z,69.70
2018-10-17T01:11:44.009Z,70.20
2018-10-17T01:14:13.171Z,70.90
2018-10-17T01:16:42.357Z,70.30
2018-10-17T01:19:11.577Z,70.20
2018-10-17T01:21:40.669Z,70.40
2018-10-17T01:24:09.845Z,70.60
2018-10-17T01:26:38.987Z,70.70
2018-10-17T01:29:08.213Z,70.60
2018-10-17T01:31:37.341Z,71.30
2018-10-17T01:34:06.494Z,70.80
2018-10-17T01:36:35.908Z,70.10
2018-10-17T01:39:07.856Z,70.40
2018-10-17T01:41:37.045Z,70.90
2018-10-17T01:44:06.973Z,70.50
2018-10-17T01:46:36.393Z,71.00
2018-10-17T01:49:05.785Z,71.00
2018-10-17T01:51:34.970Z,70.70
2018-10-17T01:54:04.136Z,69.50
2018-10-17T01:56:33.310Z,69.20
2018-10-17T01:59:02.584Z,69.40
2018-10-17T02:01:31.705Z,69.50
2018-10-17T02:04:00.901Z,69.50
2018-10-17T02:06:30.073Z,69.60
2018-10-17T02:08:59.250Z,69.60
2018-10-17T02:11:28.494Z,69.60
2018-10-17T02:13:57.672Z,69.60
2018-10-17T02:16:26.867Z,69.80
2018-10-17T02:18:56.119Z,69.70
2018-10-17T02:21:25.220Z,69.70
2018-10-17T02:23:54.385Z,69.50
2018-10-17T02:26:23.534Z,69.40
2018-10-17T02:28:52.817Z,69.20
2018-10-17T02:31:21.936Z,69.60
2018-10-17T02:33:51.101Z,69.20
2018-10-17T02:36:20.273Z,69.30
2018-10-17T02:38:49.450Z,70.10
2018-10-17T02:41:18.704Z,70.30
2018-10-17T02:43:47.822Z,70.40
2018-10-17T02:46:23.763Z,70.80
2018-10-17T02:48:53.023Z,70.60
2018-10-17T02:51:22.176Z,70.90
2018-10-17T02:53:51.373Z,71.10
2018-10-17T02:56:20.542Z,71.20
2018-10-17T02:58:49.740Z,71.50
2018-10-17T03:01:18.991Z,71.40
2018-10-17T03:03:48.061Z,71.60
2018-10-17T03:06:17.272Z,71.90
2018-10-17T03:08:46.454Z,72.00
2018-10-17T03:11:15.661Z,72.30
2018-10-17T03:13:44.765Z,72.50
2018-10-17T03:16:13.923Z,72.30
2018-10-17T03:18:43.085Z,72.70
2018-10-17T03:21:12.303Z,72.70
2018-10-17T03:23:41.493Z,72.80
2018-10-17T03:26:10.678Z,72.80
2018-10-17T03:28:39.815Z,73.10
2018-10-17T03:31:09.113Z,73.10
2018-10-17T03:33:38.261Z,73.20
2018-10-17T03:36:07.471Z,73.50
2018-10-17T03:38:36.641Z,73.60
2018-10-17T03:41:05.909Z,73.80
2018-10-17T03:43:35.084Z,73.90
2018-10-17T03:46:04.304Z,74.00
2018-10-17T03:48:33.528Z,74.00
2018-10-17T03:51:02.760Z,74.10
2018-10-17T03:53:32.449Z,74.30
2018-10-17T03:56:01.686Z,74.40
2018-10-17T03:58:30.841Z,74.50
2018-10-17T04:01:00.059Z,74.40
2018-10-17T04:03:29.189Z,74.80
2018-10-17T04:05:58.333Z,74.60
2018-10-17T04:08:27.821Z,74.80
2018-10-17T04:10:57.051Z,74.70
2018-10-17T04:13:26.341Z,74.80
2018-10-17T04:15:55.563Z,75.10
2018-10-17T04:18:25.533Z,75.20
2018-10-17T04:20:54.980Z,75.50
2018-10-17T04:23:24.188Z,75.50
2018-10-17T04:25:53.376Z,75.70
2018-10-17T04:28:22.656Z,75.70
2018-10-17T04:30:51.817Z,75.60
2018-10-17T04:33:20.994Z,75.70
2018-10-17T04:35:50.165Z,75.80
2018-10-17T04:38:19.444Z,75.90
2018-10-17T04:40:48.689Z,75.80
2018-10-17T04:43:17.938Z,75.60
2018-10-17T04:45:47.107Z,75.70
2018-10-17T04:48:34.028Z,75.80
2018-10-17T04:51:03.196Z,75.90
2018-10-17T04:53:32.448Z,76.00
2018-10-17T04:56:01.677Z,75.80
2018-10-17T04:58:30.845Z,75.40
2018-10-17T05:01:00.218Z,75.40
2018-10-17T05:03:29.325Z,75.40
2018-10-17T05:05:58.817Z,75.60
2018-10-17T05:08:27.973Z,75.70
2018-10-17T05:10:57.288Z,75.70
2018-10-17T05:13:26.624Z,75.70
2018-10-17T05:15:55.877Z,75.80
2018-10-17T05:18:25.140Z,75.90
2018-10-17T05:20:54.314Z,76.00
2018-10-17T05:23:23.588Z,76.00
2018-10-17T05:25:52.834Z,76.20
2018-10-17T05:28:22.081Z,76.20
2018-10-17T05:30:51.287Z,76.40
2018-10-17T05:33:20.456Z,76.40
2018-10-17T05:35:49.819Z,76.40
2018-10-17T05:38:19.036Z,76.50
2018-10-17T05:40:48.263Z,76.70
2018-10-17T05:43:17.706Z,76.60
2018-10-17T05:45:46.950Z,76.90
2018-10-17T05:48:16.100Z,76.80
2018-10-17T05:50:45.269Z,77.00
2018-10-17T05:53:14.511Z,76.60
2018-10-17T05:55:43.761Z,76.40
2018-10-17T05:58:12.958Z,76.40
2018-10-17T06:00:42.259Z,76.30
2018-10-17T06:03:11.522Z,76.20
2018-10-17T06:05:40.728Z,76.20
2018-10-17T06:08:09.932Z,76.00
2018-10-17T06:10:39.082Z,76.00
2018-10-17T06:13:08.303Z,75.40
2018-10-17T06:15:37.494Z,74.90
2018-10-17T06:18:06.822Z,75.20
2018-10-17T06:20:36.101Z,75.00
2018-10-17T06:23:05.573Z,74.70
2018-10-17T06:25:34.882Z,74.50
2018-10-17T06:28:04.510Z,75.20
2018-10-17T06:30:33.716Z,74.60
2018-10-17T06:33:02.911Z,74.70
2018-10-17T06:35:32.115Z,75.00
2018-10-17T06:38:01.258Z,75.30
2018-10-17T06:40:30.438Z,74.90
2018-10-17T06:42:59.623Z,74.00
2018-10-17T06:45:28.769Z,73.70
2018-10-17T06:47:58.034Z,73.30
2018-10-17T06:50:27.177Z,73.10
2018-10-17T06:52:56.350Z,72.50
2018-10-17T06:55:25.547Z,71.60
2018-10-17T06:57:54.889Z,70.70
2018-10-17T07:00:24.061Z,68.90
2018-10-17T07:02:53.243Z,67.00
2018-10-17T07:05:22.777Z,65.20
2018-10-17T07:07:51.970Z,62.80
2018-10-17T07:10:21.208Z,60.00
2018-10-17T07:12:50.365Z,58.10
2018-10-17T07:15:19.645Z,57.30
2018-10-17T07:17:48.794Z,57.50
2018-10-17T07:20:17.964Z,57.60
2018-10-17T07:22:47.129Z,56.90
2018-10-17T07:25:16.366Z,56.40
2018-10-17T07:27:45.558Z,56.10
2018-10-17T07:30:14.764Z,55.60
2018-10-17T07:32:43.943Z,54.60
2018-10-17T07:35:13.152Z,54.30
2018-10-17T07:37:42.317Z,53.90
2018-10-17T07:40:11.494Z,53.60
2018-10-17T07:42:40.638Z,53.30
2018-10-17T07:45:09.902Z,52.50
2018-10-17T07:47:39.146Z,50.70
2018-10-17T07:50:09.446Z,50.50
2018-10-17T07:52:38.667Z,50.00
2018-10-17T07:55:10.519Z,49.70
2018-10-17T07:57:39.873Z,49.30
2018-10-17T08:00:13.180Z,48.10
2018-10-17T08:02:42.375Z,48.30
2018-10-17T08:05:11.588Z,47.40
2018-10-17T08:07:40.812Z,47.60
2018-10-17T08:10:10.923Z,45.90
2018-10-17T08:12:40.240Z,45.50
2018-10-17T08:15:10.115Z,45.50
2018-10-17T08:17:39.352Z,44.50
2018-10-17T08:20:10.925Z,44.80
2018-10-17T08:22:40.157Z,44.60
2018-10-17T08:25:10.957Z,44.90
2018-10-17T08:27:40.313Z,44.40
2018-10-17T08:30:10.333Z,44.40
2018-10-17T08:32:40.053Z,44.60
2018-10-17T08:35:09.578Z,43.60
2018-10-17T08:37:39.101Z,43.50
2018-10-17T08:40:08.015Z,42.60
2018-10-17T08:42:37.249Z,43.50
2018-10-17T08:45:06.982Z,42.70
2018-10-17T08:47:36.105Z,42.00
2018-10-17T08:50:05.319Z,41.20
2018-10-17T08:52:34.473Z,41.10
2018-10-17T08:55:03.677Z,41.50
2018-10-17T08:57:32.899Z,41.00
2018-10-17T09:00:02.081Z,41.30
2018-10-17T09:02:31.242Z,41.20
2018-10-17T09:05:00.433Z,40.00
2018-10-17T09:07:29.606Z,40.40
2018-10-17T09:09:58.799Z,39.90
2018-10-17T09:12:28.126Z,39.30
2018-10-17T09:14:57.401Z,39.70
2018-10-17T09:17:26.577Z,39.80
2018-10-17T09:19:56.021Z,40.80
2018-10-17T09:22:26.329Z,40.20
2018-10-17T09:24:55.248Z,40.40
2018-10-17T09:27:24.464Z,39.20
2018-10-17T09:29:53.736Z,38.50
2018-10-17T09:32:22.900Z,38.00
2018-10-17T09:34:52.105Z,38.00
2018-10-17T09:37:21.286Z,37.10
2018-10-17T09:39:50.499Z,37.20
2018-10-17T09:42:19.745Z,36.90
2018-10-17T09:44:48.845Z,37.60
2018-10-17T09:47:18.106Z,37.70
2018-10-17T09:49:47.293Z,37.50
2018-10-17T09:52:23.193Z,38.60
2018-10-17T09:54:52.774Z,38.00
2018-10-17T09:57:22.031Z,37.00
2018-10-17T09:59:51.291Z,37.50
2018-10-17T10:02:20.792Z,37.80
2018-10-17T10:04:50.041Z,38.40
2018-10-17T10:07:19.205Z,37.40
2018-10-17T10:09:48.353Z,37.40
2018-10-17T10:12:17.554Z,36.50
2018-10-17T10:14:46.752Z,36.40
2018-10-17T10:17:16.044Z,37.00
2018-10-17T10:19:45.217Z,39.00
2018-10-17T10:22:14.398Z,38.10
2018-10-17T10:24:43.658Z,37.60
2018-10-17T10:27:12.834Z,36.60
2018-10-17T10:29:42.120Z,37.90
2018-10-17T10:32:11.201Z,37.30
2018-10-17T10:34:40.419Z,36.10
2018-10-17T10:37:09.632Z,37.10
2018-10-17T10:39:38.966Z,37.60
2018-10-17T10:42:08.152Z,37.50
2018-10-17T10:44:37.335Z,37.50
2018-10-17T10:47:06.721Z,38.80
2018-10-17T10:49:35.865Z,37.00
2018-10-17T10:52:05.316Z,37.90
2018-10-17T10:54:34.465Z,37.80
2018-10-17T10:57:03.630Z,38.00
2018-10-17T10:59:33.090Z,38.60
2018-10-17T11:02:02.047Z,37.90
2018-10-17T11:04:31.178Z,37.90
2018-10-17T11:07:00.349Z,38.80
2018-10-17T11:09:29.545Z,38.00
2018-10-17T11:11:58.745Z,37.30
2018-10-17T11:14:28.014Z,39.10
2018-10-17T11:16:57.057Z,40.00
2018-10-17T11:19:26.213Z,38.30
2018-10-17T11:21:55.474Z,37.70
2018-10-17T11:24:24.646Z,39.20
2018-10-17T11:26:53.805Z,38.00
2018-10-17T11:29:22.988Z,38.20
2018-10-17T11:31:52.265Z,39.20
2018-10-17T11:34:21.375Z,39.00
2018-10-17T11:36:50.562Z,38.70
2018-10-17T11:39:19.721Z,38.70
2018-10-17T11:41:48.898Z,37.60
2018-10-17T11:44:18.104Z,37.50
2018-10-17T11:46:47.277Z,37.80
2018-10-17T11:49:16.492Z,36.80
2018-10-17T11:51:45.657Z,38.20
2018-10-17T11:54:14.893Z,39.80
2018-10-17T11:56:44.295Z,39.50
2018-10-17T11:59:13.578Z,39.60
2018-10-17T12:01:42.657Z,40.10
2018-10-17T12:04:12.051Z,41.10
2018-10-17T12:06:41.004Z,41.80
2018-10-17T12:09:10.625Z,40.90
2018-10-17T12:11:40.094Z,41.70
2018-10-17T12:14:09.318Z,40.90
2018-10-17T12:16:38.482Z,40.70
2018-10-17T12:19:07.972Z,40.90
2018-10-17T12:21:37.149Z,40.10
2018-10-17T12:24:06.464Z,41.10
2018-10-17T12:26:35.597Z,41.10
2018-10-17T12:29:04.847Z,41.40
2018-10-17T12:31:33.997Z,42.50
2018-10-17T12:34:03.171Z,41.60
2018-10-17T12:36:32.329Z,41.30
2018-10-17T12:39:01.551Z,39.90
2018-10-17T12:41:30.755Z,41.00
2018-10-17T12:43:59.933Z,41.10
2018-10-17T12:46:29.142Z,42.40
2018-10-17T12:48:58.495Z,42.50
2018-10-17T12:51:27.589Z,42.50
2018-10-17T12:53:56.729Z,42.00
2018-10-17T12:56:25.885Z,41.50
2018-10-17T12:58:55.269Z,40.30
2018-10-17T13:01:24.409Z,39.80
2018-10-17T13:03:53.869Z,40.10
2018-10-17T13:06:23.026Z,43.20
2018-10-17T13:08:52.192Z,41.50
2018-10-17T13:11:21.450Z,41.20
2018-10-17T13:13:50.499Z,40.90
2018-10-17T13:16:19.650Z,42.40
2018-10-17T13:18:48.788Z,41.30
2018-10-17T13:21:17.945Z,41.70
2018-10-17T13:23:47.126Z,41.30
2018-10-17T13:26:16.291Z,41.90
2018-10-17T13:28:45.511Z,42.20
2018-10-17T13:31:14.843Z,41.80
2018-10-17T13:33:43.903Z,42.90
2018-10-17T13:36:13.072Z,42.70
2018-10-17T13:38:42.262Z,41.30
2018-10-17T13:41:11.538Z,41.60
2018-10-17T13:43:40.608Z,41.50
2018-10-17T13:46:09.821Z,41.90
2018-10-17T13:48:39.006Z,42.30
2018-10-17T13:51:08.225Z,42.50
2018-10-17T13:53:37.416Z,43.10
2018-10-17T13:56:07.041Z,42.90
2018-10-17T13:58:36.232Z,42.10
2018-10-17T14:01:05.515Z,42.50
2018-10-17T14:03:34.649Z,43.10
2018-10-17T14:06:03.870Z,43.10
2018-10-17T14:08:33.097Z,43.90
2018-10-17T14:11:02.235Z,43.70
2018-10-17T14:13:31.486Z,43.70
2018-10-17T14:16:00.546Z,43.90
2018-10-17T14:18:29.724Z,44.30
2018-10-17T14:20:58.893Z,45.50
2018-10-17T14:23:28.109Z,44.60
2018-10-17T14:25:57.264Z,45.60
2018-10-17T14:28:26.459Z,45.90
2018-10-17T14:30:55.630Z,44.50
2018-10-17T14:33:25.046Z,45.50
2018-10-17T14:35:54.490Z,45.50
2018-10-17T14:38:23.633Z,46.00
2018-10-17T14:40:52.931Z,44.30
2018-10-17T14:43:21.964Z,44.70
2018-10-17T14:45:51.153Z,44.30
2018-10-17T14:48:20.331Z,44.30
2018-10-17T14:50:49.503Z,46.20
2018-10-17T14:53:18.805Z,45.90
2018-10-17T14:55:48.020Z,47.10
2018-10-17T14:58:17.096Z,47.50
2018-10-17T15:00:46.241Z,49.00
2018-10-17T15:03:15.481Z,49.40
2018-10-17T15:05:44.649Z,49.80
2018-10-17T15:08:13.807Z,50.80
2018-10-17T15:10:43.262Z,50.50
2018-10-17T15:13:12.307Z,51.30
2018-10-17T15:15:44.384Z,52.30
2018-10-17T15:18:14.555Z,52.60
2018-10-17T15:20:44.025Z,53.10
2018-10-17T15:23:13.678Z,52.40
2018-10-17T15:25:42.825Z,52.20
2018-10-17T15:28:11.991Z,52.60
2018-10-17T15:30:41.157Z,52.10
2018-10-17T15:33:10.509Z,52.20
2018-10-17T15:35:39.580Z,52.10
2018-10-17T15:38:08.873Z,52.30
2018-10-17T15:40:38.062Z,52.40
2018-10-17T15:43:07.255Z,52.50
2018-10-17T15:45:36.433Z,53.10
2018-10-17T15:48:05.981Z,53.50
2018-10-17T15:50:35.107Z,53.40
2018-10-17T15:53:04.323Z,53.00
2018-10-17T15:55:33.499Z,53.60
2018-10-17T15:58:02.852Z,53.50
2018-10-17T16:00:32.064Z,53.90
2018-10-17T16:03:01.233Z,54.10
2018-10-17T16:05:30.494Z,54.40
2018-10-17T16:07:59.693Z,54.70
2018-10-17T16:10:28.850Z,55.20
2018-10-17T16:12:58.049Z,54.90
2018-10-17T16:15:27.226Z,55.30
2018-10-17T16:17:56.552Z,55.40
2018-10-17T16:20:25.657Z,55.70
2018-10-17T16:22:54.867Z,56.30
2018-10-17T16:25:23.948Z,56.70
2018-10-17T16:27:53.165Z,56.60
2018-10-17T16:30:22.731Z,56.60
2018-10-17T16:32:51.811Z,56.60
2018-10-17T16:35:20.994Z,57.10
2018-10-17T16:37:50.236Z,57.00
2018-10-17T16:40:19.469Z,57.50
2018-10-17T16:42:48.633Z,57.60
2018-10-17T16:45:17.799Z,57.60
2018-10-17T16:47:46.989Z,57.70
2018-10-17T16:50:16.299Z,57.90
2018-10-17T16:52:45.373Z,58.40
2018-10-17T16:55:14.647Z,58.50
2018-10-17T16:57:43.901Z,59.10
2018-10-17T17:00:13.516Z,59.30
2018-10-17T17:02:42.691Z,59.60
2018-10-17T17:05:13.271Z,59.60
2018-10-17T17:07:42.647Z,59.60
2018-10-17T17:10:13.084Z,59.80
2018-10-17T17:12:42.609Z,59.90
2018-10-17T17:15:12.210Z,60.50
2018-10-17T17:17:41.341Z,60.50
2018-10-17T17:20:11.609Z,60.80
2018-10-17T17:22:41.494Z,61.40
2018-10-17T17:25:10.840Z,61.30
2018-10-17T17:27:40.050Z,61.80
2018-10-17T17:30:14.639Z,61.80
2018-10-17T17:32:44.266Z,61.80
2018-10-17T17:35:13.496Z,62.50
2018-10-17T17:37:42.969Z,62.80
2018-10-17T17:40:13.585Z,62.80
2018-10-17T17:42:42.765Z,63.20
2018-10-17T17:45:11.988Z,63.40
2018-10-17T17:47:41.196Z,63.80
2018-10-17T17:50:10.787Z,64.10
2018-10-17T17:52:40.162Z,64.20
2018-10-17T17:57:47.323Z,65.10
2018-10-17T18:00:16.502Z,65.40
2018-10-17T18:02:45.701Z,65.50
2018-10-17T18:05:15.195Z,65.60
2018-10-17T18:07:44.434Z,65.70
2018-10-17T18:10:13.686Z,66.00
2018-10-17T18:12:42.848Z,66.40
2018-10-17T18:15:12.145Z,66.40
2018-10-17T18:17:41.523Z,66.50
2018-10-17T18:20:12.987Z,66.30
2018-10-17T18:22:42.275Z,66.80
2018-10-17T18:25:11.497Z,66.90
2018-10-17T18:27:42.317Z,67.20
2018-10-17T18:30:11.451Z,67.10
2018-10-17T18:32:40.969Z,67.40
2018-10-17T18:35:12.997Z,67.70
2018-10-17T18:37:42.349Z,67.80
2018-10-17T18:40:11.555Z,68.00
2018-10-17T18:42:40.751Z,68.10
2018-10-17T18:45:10.055Z,68.40
2018-10-17T18:47:39.611Z,68.80
2018-10-17T18:50:09.048Z,68.90
2018-10-17T18:52:38.285Z,69.20
2018-10-17T18:55:07.914Z,69.30
2018-10-17T18:57:37.212Z,69.40
2018-10-17T19:00:09.145Z,69.70
2018-10-17T19:02:38.403Z,69.60
2018-10-17T19:05:07.697Z,69.90
2018-10-17T19:09:01.750Z,70.00
2018-10-17T19:11:30.963Z,70.10
2018-10-17T19:14:00.161Z,70.50
2018-10-17T19:16:29.524Z,70.60
2018-10-17T19:18:58.753Z,70.70
2018-10-17T19:21:28.133Z,70.60
2018-10-17T19:23:57.449Z,70.60
2018-10-17T19:26:26.712Z,70.80
2018-10-17T19:28:56.961Z,70.90
2018-10-17T19:31:26.147Z,71.00
2018-10-17T19:33:55.406Z,71.00
2018-10-17T19:36:24.650Z,71.30
2018-10-17T19:38:53.885Z,71.40
2018-10-17T19:41:23.413Z,71.70
2018-10-17T19:43:52.613Z,71.80
2018-10-17T19:46:21.919Z,71.90
2018-10-17T19:48:51.172Z,72.00
2018-10-17T19:51:20.356Z,72.00
2018-10-17T19:53:49.702Z,72.20
2018-10-17T19:56:18.936Z,72.10
2018-10-17T19:58:48.152Z,72.30
2018-10-17T20:01:17.840Z,72.50
2018-10-17T20:03:47.072Z,72.80
2018-10-17T20:06:18.052Z,72.90
2018-10-17T20:08:47.374Z,73.10
2018-10-17T20:11:17.135Z,73.10
2018-10-17T20:13:46.383Z,73.20
2018-10-17T20:16:15.633Z,73.10
2018-10-17T20:18:44.837Z,73.40
2018-10-17T20:21:14.097Z,73.40
2018-10-17T20:23:43.288Z,73.70
2018-10-17T20:26:12.848Z,73.60
2018-10-17T20:28:42.100Z,73.60
2018-10-17T20:31:13.864Z,73.90
2018-10-17T20:33:43.261Z,73.90
2018-10-17T20:36:12.508Z,74.20
2018-10-17T20:38:41.787Z,74.10
2018-10-17T20:41:10.913Z,74.10
2018-10-17T20:43:40.182Z,74.40
2018-10-17T20:46:09.439Z,74.40
2018-10-17T20:48:38.745Z,74.40
2018-10-17T20:51:07.967Z,74.50
2018-10-17T20:53:40.568Z,74.70
2018-10-17T20:56:09.929Z,74.70
2018-10-17T20:58:39.046Z,75.50
2018-10-17T21:01:08.896Z,74.80
2018-10-17T21:03:39.010Z,74.60
2018-10-17T21:06:08.260Z,74.60
2018-10-17T21:08:37.451Z,74.80
2018-10-17T21:11:06.824Z,74.80
2018-10-17T21:13:35.984Z,75.00
2018-10-17T21:16:05.505Z,75.00
2018-10-17T21:18:34.824Z,74.90
2018-10-17T21:21:03.998Z,75.10
2018-10-17T21:23:33.261Z,75.20
2018-10-17T21:26:02.553Z,75.20
2018-10-17T21:28:31.881Z,75.40
2018-10-17T21:31:01.277Z,75.50
2018-10-17T21:33:30.482Z,76.30
2018-10-17T21:35:59.649Z,75.60
2018-10-17T21:38:28.852Z,75.50
2018-10-17T21:40:58.066Z,75.80
2018-10-17T21:43:27.281Z,75.90
2018-10-17T21:45:56.437Z,76.10
2018-10-17T21:48:25.641Z,76.00
2018-10-17T21:50:54.964Z,76.10
2018-10-17T21:53:24.169Z,76.20
2018-10-17T21:55:53.468Z,76.30
2018-10-17T21:58:22.621Z,77.00
2018-10-17T22:00:51.892Z,76.40
2018-10-17T22:03:21.582Z,76.60
2018-10-17T22:05:50.773Z,76.50
2018-10-17T22:08:19.984Z,77.30
2018-10-17T22:10:49.267Z,76.70
2018-10-17T22:13:18.426Z,76.90
2018-10-17T22:15:47.805Z,76.90
2018-10-17T22:18:17.228Z,77.00
2018-10-17T22:20:46.712Z,77.20
2018-10-17T22:23:15.927Z,77.20
2018-10-17T22:25:45.266Z,77.20
2018-10-17T22:28:14.437Z,77.40
2018-10-17T22:30:43.626Z,77.70
2018-10-17T22:33:12.861Z,77.60
2018-10-17T22:35:42.144Z,77.70
2018-10-17T22:38:11.464Z,77.60
2018-10-17T22:40:40.707Z,77.80
2018-10-17T22:43:09.921Z,77.80
2018-10-17T22:45:39.327Z,77.60
2018-10-17T22:48:08.600Z,77.70
2018-10-17T22:50:37.822Z,77.80
2018-10-17T22:53:07.000Z,78.00
2018-10-17T22:55:36.195Z,77.90
2018-10-17T22:58:05.832Z,78.00
2018-10-17T23:00:35.032Z,78.10
2018-10-17T23:03:04.198Z,78.20
2018-10-17T23:05:33.381Z,78.20
2018-10-17T23:08:02.728Z,78.30
2018-10-17T23:10:31.882Z,78.30
2018-10-17T23:13:01.055Z,78.30
2018-10-17T23:15:30.241Z,78.50
2018-10-17T23:17:59.466Z,78.70
2018-10-17T23:20:28.737Z,78.60
2018-10-17T23:22:57.888Z,78.70
2018-10-17T23:25:27.102Z,78.90
2018-10-17T23:27:56.254Z,78.70
2018-10-17T23:30:25.477Z,78.50
2018-10-17T23:32:54.717Z,78.70
2018-10-17T23:35:23.878Z,78.50
2018-10-17T23:37:53.090Z,78.40
2018-10-17T23:40:22.239Z,78.10
2018-10-17T23:42:51.394Z,78.10
2018-10-17T23:45:20.593Z,78.00
2018-10-17T23:47:49.780Z,77.90
2018-10-17T23:50:19.002Z,78.00
2018-10-17T23:52:48.069Z,77.90
2018-10-17T23:55:17.267Z,78.20
2018-10-17T23:57:46.409Z,78.30
